Time;durP1;ratioP1;P1;durP2;ratioP2;P2;SDS_P1;SDS_P2;PMS_P1;PMS_P2;Temp;Humidity;BMP_temperature;BMP_pressure;BME280_temperature;BME280_humidity;BME280_pressure;Samples;Min_cycle;Max_cycle;Signal;HPM_P1;HPM_P2
2023/12/09 00:00:50;;;;;;;1.92;0.70;;;;;;;;;;4896271;29;20056;-60
2023/12/09 00:04:30;;;;;;;1.45;0.90;;;;;;;;;;4898143;29;20144;-59
2023/12/09 00:08:10;;;;;;;4.03;0.70;;;;;;;;;;4894940;29;20108;-60
2023/12/09 00:11:51;;;;;;;2.55;1.00;;;;;;;;;;4904157;29;20074;-58
2023/12/09 00:15:31;;;;;;;3.78;1.00;;;;;;;;;;4912831;29;20683;-59
2023/12/09 00:19:12;;;;;;;2.28;1.00;;;;;;;;;;4914345;29;20083;-61
2023/12/09 00:22:52;;;;;;;2.60;1.02;;;;;;;;;;4903273;29;20045;-62
2023/12/09 00:26:33;;;;;;;1.70;0.93;;;;;;;;;;4897774;29;20494;-58
2023/12/09 00:30:13;;;;;;;2.30;1.00;;;;;;;;;;4916784;29;20108;-57
2023/12/09 00:33:54;;;;;;;2.25;1.10;;;;;;;;;;4897110;29;20417;-57
2023/12/09 00:37:34;;;;;;;2.65;0.80;;;;;;;;;;4901742;29;20063;-57
2023/12/09 00:41:14;;;;;;;2.63;1.20;;;;;;;;;;4901133;29;20060;-57
2023/12/09 00:44:55;;;;;;;2.70;1.10;;;;;;;;;;4911179;29;20062;-59
2023/12/09 00:48:35;;;;;;;1.58;0.80;;;;;;;;;;4909636;29;20437;-58
2023/12/09 00:52:15;;;;;;;1.55;1.00;;;;;;;;;;4915510;29;20525;-58
2023/12/09 00:55:57;;;;;;;1.88;1.00;;;;;;;;;;4904267;29;20056;-57
2023/12/09 00:59:37;;;;;;;1.70;0.80;;;;;;;;;;4911425;29;20473;-59
2023/12/09 01:03:18;;;;;;;2.42;0.90;;;;;;;;;;4911766;29;20056;-57
2023/12/09 01:06:58;;;;;;;2.63;0.80;;;;;;;;;;4914488;29;20062;-59
2023/12/09 01:10:40;;;;;;;2.13;0.93;;;;;;;;;;4906210;29;20058;-57
2023/12/09 01:14:20;;;;;;;2.88;1.17;;;;;;;;;;4899103;29;20063;-61
2023/12/09 01:18:00;;;;;;;3.97;1.30;;;;;;;;;;4899526;29;20049;-60
2023/12/09 01:21:42;;;;;;;2.72;0.88;;;;;;;;;;4903599;29;20146;-58
2023/12/09 01:25:21;;;;;;;2.70;1.08;;;;;;;;;;4908707;29;20045;-57
2023/12/09 01:29:03;;;;;;;2.90;1.00;;;;;;;;;;4904409;29;20132;-58
2023/12/09 01:32:42;;;;;;;4.50;1.23;;;;;;;;;;4904738;29;20052;-57
2023/12/09 01:36:22;;;;;;;6.40;1.23;;;;;;;;;;4912520;29;20048;-59
2023/12/09 01:40:04;;;;;;;2.40;1.10;;;;;;;;;;4895097;29;20059;-56
2023/12/09 01:43:43;;;;;;;2.50;1.00;;;;;;;;;;4895947;29;20050;-55
2023/12/09 01:47:23;;;;;;;3.58;1.00;;;;;;;;;;4912331;29;20412;-56
2023/12/09 01:51:04;;;;;;;2.90;0.85;;;;;;;;;;4896702;29;20151;-60
2023/12/09 01:54:44;;;;;;;2.17;1.00;;;;;;;;;;4907588;29;20143;-57
2023/12/09 01:58:24;;;;;;;1.33;0.80;;;;;;;;;;4900900;29;20067;-56
2023/12/09 02:02:05;;;;;;;3.92;1.00;;;;;;;;;;4906499;29;20055;-58
2023/12/09 02:05:46;;;;;;;3.20;1.00;;;;;;;;;;4909561;29;20108;-57
2023/12/09 02:09:27;;;;;;;2.75;1.10;;;;;;;;;;4897939;29;20060;-55
2023/12/09 02:12:30;;;;;;;5.18;1.20;;;;;;;;;;4911813;29;20079;-58
2023/12/09 02:15:50;;;;;;;1.85;0.98;;;;;;;;;;4900706;29;20522;-60
2023/12/09 02:19:31;;;;;;;1.95;0.95;;;;;;;;;;4901763;29;20116;-56
2023/12/09 02:23:17;;;;;;;2.88;1.20;;;;;;;;;;4906379;29;20052;-57
2023/12/09 02:26:58;;;;;;;2.70;1.00;;;;;;;;;;4909465;29;20500;-59
2023/12/09 02:30:39;;;;;;;3.08;0.95;;;;;;;;;;4901292;29;20083;-56
2023/12/09 02:34:20;;;;;;;3.05;1.15;;;;;;;;;;4895792;29;20044;-58
2023/12/09 02:38:00;;;;;;;1.75;0.90;;;;;;;;;;4906261;29;20052;-58
2023/12/09 02:41:40;;;;;;;2.05;0.93;;;;;;;;;;4901651;29;20059;-56
2023/12/09 02:45:23;;;;;;;2.25;1.02;;;;;;;;;;4897885;29;20056;-57
2023/12/09 02:49:03;;;;;;;4.32;1.60;;;;;;;;;;4906114;29;20396;-57
2023/12/09 02:52:44;;;;;;;6.57;1.60;;;;;;;;;;4908761;29;20056;-58
2023/12/09 02:56:24;;;;;;;4.85;2.00;;;;;;;;;;4912530;29;20052;-59
2023/12/09 03:00:05;;;;;;;3.35;1.75;;;;;;;;;;4907571;29;20079;-57
2023/12/09 03:03:45;;;;;;;5.07;2.05;;;;;;;;;;4898668;29;20056;-57
2023/12/09 03:07:25;;;;;;;4.38;1.98;;;;;;;;;;4893847;29;20044;-57
2023/12/09 03:11:05;;;;;;;3.08;1.73;;;;;;;;;;4907799;29;20048;-57
2023/12/09 03:14:46;;;;;;;3.05;1.38;;;;;;;;;;4899671;29;20064;-57
2023/12/09 03:18:26;;;;;;;3.78;1.20;;;;;;;;;;4899439;29;20055;-57
2023/12/09 03:22:07;;;;;;;2.90;1.40;;;;;;;;;;4908411;29;20136;-58
2023/12/09 03:25:47;;;;;;;3.80;1.30;;;;;;;;;;4908839;29;20135;-57
2023/12/09 03:29:28;;;;;;;5.35;1.20;;;;;;;;;;4896001;29;20390;-59
2023/12/09 03:33:08;;;;;;;3.17;1.10;;;;;;;;;;4898033;29;20052;-58
2023/12/09 03:37:04;;;;;;;3.33;1.08;;;;;;;;;;4902391;29;20052;-56
2023/12/09 03:40:44;;;;;;;2.90;1.08;;;;;;;;;;4906241;29;20141;-58
2023/12/09 03:44:24;;;;;;;1.80;0.90;;;;;;;;;;4908274;29;20059;-57
2023/12/09 03:48:05;;;;;;;1.75;0.77;;;;;;;;;;4909466;29;20047;-57
2023/12/09 03:51:45;;;;;;;2.80;0.85;;;;;;;;;;4904580;29;20044;-56
2023/12/09 03:55:25;;;;;;;3.13;1.10;;;;;;;;;;4904854;29;20080;-58
2023/12/09 03:59:06;;;;;;;2.17;0.82;;;;;;;;;;4901104;29;20048;-55
2023/12/09 04:02:46;;;;;;;2.58;0.80;;;;;;;;;;4900874;29;20050;-56
2023/12/09 04:06:27;;;;;;;1.80;0.98;;;;;;;;;;4898085;29;20040;-59
2023/12/09 04:10:09;;;;;;;4.38;1.05;;;;;;;;;;4894767;29;20158;-56
2023/12/09 04:13:47;;;;;;;1.25;0.80;;;;;;;;;;4909632;29;20052;-59
2023/12/09 04:17:28;;;;;;;3.30;1.05;;;;;;;;;;4895427;29;20112;-58
2023/12/09 04:21:08;;;;;;;1.80;0.93;;;;;;;;;;4904934;29;20045;-58
2023/12/09 04:24:50;;;;;;;2.10;1.23;;;;;;;;;;4899126;29;20048;-56
2023/12/09 04:28:30;;;;;;;2.17;1.00;;;;;;;;;;4906903;29;20426;-56
2023/12/09 04:32:10;;;;;;;2.85;0.90;;;;;;;;;;4906896;29;20052;-56
2023/12/09 04:35:51;;;;;;;3.55;1.00;;;;;;;;;;4900913;29;20052;-57
2023/12/09 04:39:31;;;;;;;1.17;0.63;;;;;;;;;;4899028;29;20413;-57
2023/12/09 04:43:11;;;;;;;2.33;0.90;;;;;;;;;;4901435;29;20698;-56
2023/12/09 04:46:52;;;;;;;2.75;0.60;;;;;;;;;;4900533;29;20512;-58
2023/12/09 04:50:32;;;;;;;4.25;1.00;;;;;;;;;;4907490;29;20060;-57
2023/12/09 04:54:13;;;;;;;2.55;0.93;;;;;;;;;;4911464;29;20215;-57
2023/12/09 04:57:53;;;;;;;3.25;1.17;;;;;;;;;;4906393;29;20056;-59
2023/12/09 05:01:33;;;;;;;5.07;1.23;;;;;;;;;;4906761;29;20637;-56
2023/12/09 05:05:14;;;;;;;6.70;1.10;;;;;;;;;;4897230;29;20056;-56
2023/12/09 05:08:54;;;;;;;1.48;0.82;;;;;;;;;;4909408;29;20367;-60
2023/12/09 05:12:34;;;;;;;2.10;0.90;;;;;;;;;;4903752;29;20132;-56
2023/12/09 05:16:15;;;;;;;2.35;0.90;;;;;;;;;;4914642;29;20052;-57
2023/12/09 05:19:55;;;;;;;2.42;0.90;;;;;;;;;;4897333;29;20064;-58
2023/12/09 05:23:36;;;;;;;2.20;0.90;;;;;;;;;;4906765;29;20063;-58
2023/12/09 05:27:16;;;;;;;2.75;1.10;;;;;;;;;;4903940;29;20104;-55
2023/12/09 05:30:57;;;;;;;2.67;1.02;;;;;;;;;;4907774;29;20056;-57
2023/12/09 05:34:37;;;;;;;2.58;1.40;;;;;;;;;;4910474;29;20068;-57
2023/12/09 05:38:17;;;;;;;4.55;1.20;;;;;;;;;;4907513;29;20040;-56
2023/12/09 05:41:58;;;;;;;4.22;1.20;;;;;;;;;;4898063;29;20049;-64
2023/12/09 05:45:38;;;;;;;5.57;1.20;;;;;;;;;;4907644;29;20077;-59
2023/12/09 05:49:18;;;;;;;4.03;1.73;;;;;;;;;;4903000;29;20056;-56
2023/12/09 05:52:59;;;;;;;3.67;1.30;;;;;;;;;;4907960;29;20051;-58
2023/12/09 05:56:39;;;;;;;3.80;1.58;;;;;;;;;;4915189;29;20098;-60
2023/12/09 06:00:19;;;;;;;2.67;1.10;;;;;;;;;;4906842;29;20053;-59
2023/12/09 06:04:01;;;;;;;7.30;1.38;;;;;;;;;;4897491;29;20049;-57
2023/12/09 06:07:41;;;;;;;3.40;1.27;;;;;;;;;;4894261;29;20064;-54
2023/12/09 06:11:21;;;;;;;3.00;1.02;;;;;;;;;;4908240;29;20131;-59
2023/12/09 06:14:22;;;;;;;6.03;1.58;;;;;;;;;;4903493;29;20138;-58
2023/12/09 06:17:28;;;;;;;4.90;1.10;;;;;;;;;;4915288;29;20052;-57
2023/12/09 06:21:08;;;;;;;4.55;1.42;;;;;;;;;;4908095;29;20095;-57
2023/12/09 06:24:50;;;;;;;2.53;1.30;;;;;;;;;;4907109;29;20139;-58
2023/12/09 06:28:29;;;;;;;4.75;1.52;;;;;;;;;;4905857;29;20044;-57
2023/12/09 06:32:10;;;;;;;3.95;1.42;;;;;;;;;;4905612;29;20052;-57
2023/12/09 06:35:50;;;;;;;5.07;1.17;;;;;;;;;;4908054;29;20176;-57
2023/12/09 06:39:32;;;;;;;3.90;1.10;;;;;;;;;;4909075;29;20063;-58
2023/12/09 06:43:14;;;;;;;4.63;1.17;;;;;;;;;;4898965;29;20086;-56
2023/12/09 06:46:57;;;;;;;5.18;1.35;;;;;;;;;;4901701;29;20108;-58
2023/12/09 06:50:38;;;;;;;4.07;1.30;;;;;;;;;;4904178;29;20528;-58
2023/12/09 06:54:17;;;;;;;3.20;1.02;;;;;;;;;;4908289;29;20047;-56
2023/12/09 06:57:58;;;;;;;3.42;1.30;;;;;;;;;;4908501;29;20047;-57
2023/12/09 07:01:38;;;;;;;3.33;1.30;;;;;;;;;;4903107;29;20526;-56
2023/12/09 07:05:18;;;;;;;2.75;1.27;;;;;;;;;;4895537;29;20064;-59
2023/12/09 07:08:59;;;;;;;2.65;1.10;;;;;;;;;;4903441;29;20044;-64
2023/12/09 07:12:39;;;;;;;3.53;1.25;;;;;;;;;;4899700;29;20454;-57
2023/12/09 07:16:19;;;;;;;5.43;1.50;;;;;;;;;;4905711;29;20142;-61
2023/12/09 07:20:00;;;;;;;6.55;1.70;;;;;;;;;;4900583;29;20087;-60
2023/12/09 07:23:40;;;;;;;5.22;1.30;;;;;;;;;;4903725;29;20036;-60
2023/12/09 07:27:21;;;;;;;5.38;1.77;;;;;;;;;;4913685;29;20133;-61
2023/12/09 07:31:02;;;;;;;5.32;1.67;;;;;;;;;;4899799;29;20136;-59
2023/12/09 07:34:42;;;;;;;3.33;1.50;;;;;;;;;;4902377;29;20040;-63
2023/12/09 07:38:26;;;;;;;8.02;1.45;;;;;;;;;;4912691;29;20124;-63
2023/12/09 07:42:06;;;;;;;5.82;1.98;;;;;;;;;;4907313;29;20126;-61
2023/12/09 07:45:48;;;;;;;6.05;1.60;;;;;;;;;;4908159;29;20356;-65
2023/12/09 07:49:28;;;;;;;8.10;1.90;;;;;;;;;;4901834;29;20083;-63
2023/12/09 07:53:09;;;;;;;7.50;2.53;;;;;;;;;;4910254;29;20059;-63
2023/12/09 07:55:44;;;;;;;9.18;2.60;;;;;;;;;;4895485;29;20337;-64
2023/12/09 07:58:11;;;;;;;6.43;2.17;;;;;;;;;;4907109;29;20056;-65
2023/12/09 08:00:37;;;;;;;6.57;2.38;;;;;;;;;;4896083;29;20188;-68
2023/12/09 08:03:06;;;;;;;7.25;2.33;;;;;;;;;;4894351;29;20131;-64
2023/12/09 08:05:34;;;;;;;6.60;2.15;;;;;;;;;;4900438;29;20158;-63
2023/12/09 08:08:01;;;;;;;8.20;1.73;;;;;;;;;;4899444;29;20055;-62
2023/12/09 08:10:29;;;;;;;8.50;2.10;;;;;;;;;;4900786;29;20584;-61
2023/12/09 08:12:55;;;;;;;8.32;2.10;;;;;;;;;;4910568;29;20564;-59
2023/12/09 08:15:28;;;;;;;5.13;1.75;;;;;;;;;;4902018;29;20509;-61
2023/12/09 08:17:54;;;;;;;5.38;1.70;;;;;;;;;;4899232;29;20138;-64
2023/12/09 08:20:21;;;;;;;4.95;1.75;;;;;;;;;;4896055;29;20060;-62
2023/12/09 08:22:47;;;;;;;4.78;1.60;;;;;;;;;;4910540;29;20689;-63
2023/12/09 08:25:13;;;;;;;8.88;2.35;;;;;;;;;;4907251;29;20165;-62
2023/12/09 08:27:39;;;;;;;7.03;2.60;;;;;;;;;;4903239;29;20052;-64
2023/12/09 08:30:10;;;;;;;8.88;2.17;;;;;;;;;;4905465;29;20127;-63
2023/12/09 08:32:42;;;;;;;7.18;2.30;;;;;;;;;;4906956;29;20081;-62
2023/12/09 08:35:09;;;;;;;8.23;2.97;;;;;;;;;;4908255;29;20049;-65
2023/12/09 08:38:16;;;;;;;10.52;2.40;;;;;;;;;;4903542;29;20064;-63
2023/12/09 08:41:57;;;;;;;7.65;2.13;;;;;;;;;;4908312;29;20099;-62
2023/12/09 08:45:37;;;;;;;9.55;2.70;;;;;;;;;;4909809;29;20054;-62
2023/12/09 08:49:17;;;;;;;8.73;2.83;;;;;;;;;;4909783;29;20144;-63
2023/12/09 08:52:58;;;;;;;8.68;2.25;;;;;;;;;;4906451;29;20563;-63
2023/12/09 08:56:38;;;;;;;9.35;2.55;;;;;;;;;;4913856;29;20048;-62
2023/12/09 09:00:20;;;;;;;5.43;2.33;;;;;;;;;;4896427;29;20051;-63
2023/12/09 09:03:13;;;;;;;11.80;2.60;;;;;;;;;;4902728;29;20048;-60
2023/12/09 09:05:39;;;;;;;11.18;2.50;;;;;;;;;;4905688;29;20383;-63
2023/12/09 09:08:10;;;;;;;5.95;2.08;;;;;;;;;;4907074;29;20063;-63
2023/12/09 09:10:36;;;;;;;6.28;1.90;;;;;;;;;;4901126;29;20135;-62
2023/12/09 09:13:04;;;;;;;4.55;2.00;;;;;;;;;;4902508;29;20191;-64
2023/12/09 09:15:31;;;;;;;9.00;2.08;;;;;;;;;;4903778;29;20048;-65
2023/12/09 09:17:58;;;;;;;8.07;2.15;;;;;;;;;;4901314;29;20084;-64
2023/12/09 09:20:32;;;;;;;7.70;2.28;;;;;;;;;;4904131;29;20111;-61
2023/12/09 09:23:06;;;;;;;8.95;1.85;;;;;;;;;;4898527;29;20111;-63
2023/12/09 09:25:32;;;;;;;4.85;1.98;;;;;;;;;;4900636;29;20516;-62
2023/12/09 09:27:58;;;;;;;5.25;1.70;;;;;;;;;;4928364;29;20084;-63
2023/12/09 09:30:25;;;;;;;10.50;1.92;;;;;;;;;;4903098;29;20563;-62
2023/12/09 09:32:52;;;;;;;6.03;1.55;;;;;;;;;;4911748;29;20075;-63
2023/12/09 09:35:19;;;;;;;6.75;1.80;;;;;;;;;;4908855;29;20466;-64
2023/12/09 09:37:45;;;;;;;5.47;1.65;;;;;;;;;;4909997;29;20080;-65
2023/12/09 09:40:14;;;;;;;5.03;1.33;;;;;;;;;;4901674;29;20048;-63
2023/12/09 09:42:54;;;;;;;4.18;1.67;;;;;;;;;;4904279;29;20052;-62
2023/12/09 09:45:26;;;;;;;7.80;1.90;;;;;;;;;;4900341;29;20056;-62
2023/12/09 09:47:55;;;;;;;5.57;1.70;;;;;;;;;;4922711;29;20675;-64
2023/12/09 09:50:23;;;;;;;3.17;1.60;;;;;;;;;;4903266;29;20134;-61
2023/12/09 09:52:53;;;;;;;4.53;1.50;;;;;;;;;;4906717;29;20064;-62
2023/12/09 09:55:24;;;;;;;6.05;1.42;;;;;;;;;;4910502;29;20500;-63
2023/12/09 09:57:50;;;;;;;5.40;1.45;;;;;;;;;;4902159;29;20071;-60
2023/12/09 10:00:19;;;;;;;6.30;2.40;;;;;;;;;;4914166;29;20083;-62
2023/12/09 10:02:48;;;;;;;4.85;1.90;;;;;;;;;;4904005;29;20052;-61
2023/12/09 10:05:20;;;;;;;5.57;1.92;;;;;;;;;;4905511;29;20499;-61
2023/12/09 10:07:47;;;;;;;4.22;1.75;;;;;;;;;;4902204;29;20058;-62
2023/12/09 10:10:16;;;;;;;6.43;1.63;;;;;;;;;;4911530;29;20052;-63
2023/12/09 10:12:45;;;;;;;4.18;1.52;;;;;;;;;;4897051;29;20099;-61
2023/12/09 10:15:12;;;;;;;5.55;1.50;;;;;;;;;;4903770;29;20083;-62
2023/12/09 10:17:39;;;;;;;5.15;1.33;;;;;;;;;;4904149;29;20060;-65
2023/12/09 10:20:08;;;;;;;3.80;1.40;;;;;;;;;;4900008;29;20112;-61
2023/12/09 10:22:35;;;;;;;7.13;2.03;;;;;;;;;;4897563;29;20088;-63
2023/12/09 10:25:01;;;;;;;3.75;1.30;;;;;;;;;;4906709;29;20099;-63
2023/12/09 10:27:28;;;;;;;3.85;1.30;;;;;;;;;;4893254;29;20093;-64
2023/12/09 10:30:00;;;;;;;5.00;1.50;;;;;;;;;;4904909;29;20072;-64
2023/12/09 10:32:28;;;;;;;5.55;1.60;;;;;;;;;;4908106;29;20120;-63
2023/12/09 10:34:56;;;;;;;6.63;1.55;;;;;;;;;;4901900;29;20087;-70
2023/12/09 10:37:27;;;;;;;8.02;1.80;;;;;;;;;;4913238;29;20127;-63
2023/12/09 10:39:54;;;;;;;8.40;1.70;;;;;;;;;;4908377;29;20074;-63
2023/12/09 10:42:23;;;;;;;3.75;1.38;;;;;;;;;;4909105;29;20052;-61
2023/12/09 10:44:49;;;;;;;4.88;1.60;;;;;;;;;;4902928;29;20067;-61
2023/12/09 10:47:19;;;;;;;3.08;1.15;;;;;;;;;;4918877;29;20070;-63
2023/12/09 10:49:46;;;;;;;3.67;1.30;;;;;;;;;;4909726;29;20056;-64
2023/12/09 10:52:12;;;;;;;3.33;1.50;;;;;;;;;;4900633;29;20051;-64
2023/12/09 10:54:39;;;;;;;5.00;1.70;;;;;;;;;;4894625;29;20052;-63
2023/12/09 10:57:08;;;;;;;3.83;1.50;;;;;;;;;;4895581;29;20060;-63
2023/12/09 10:59:36;;;;;;;5.85;1.30;;;;;;;;;;4894402;29;20084;-66
2023/12/09 11:02:04;;;;;;;6.75;1.77;;;;;;;;;;4908615;29;20083;-63
2023/12/09 11:04:34;;;;;;;5.15;1.48;;;;;;;;;;4907429;29;20063;-65
2023/12/09 11:07:05;;;;;;;5.65;1.70;;;;;;;;;;4901558;29;20063;-64
2023/12/09 11:09:32;;;;;;;4.53;1.63;;;;;;;;;;4907927;29;20115;-61
2023/12/09 11:11:59;;;;;;;7.00;1.48;;;;;;;;;;4911183;29;20064;-63
2023/12/09 11:14:28;;;;;;;3.65;1.38;;;;;;;;;;4914138;29;20539;-61
2023/12/09 11:16:57;;;;;;;7.18;1.80;;;;;;;;;;4912724;29;20144;-62
2023/12/09 11:19:24;;;;;;;5.57;1.60;;;;;;;;;;4899752;29;20056;-64
2023/12/09 11:21:52;;;;;;;3.15;1.52;;;;;;;;;;4896638;29;20252;-64
2023/12/09 11:24:19;;;;;;;3.65;1.48;;;;;;;;;;4901934;29;20412;-61
2023/12/09 11:26:46;;;;;;;8.30;1.70;;;;;;;;;;4903478;29;20052;-65
2023/12/09 11:29:14;;;;;;;3.15;1.30;;;;;;;;;;4905125;29;20060;-63
2023/12/09 11:31:45;;;;;;;4.25;1.60;;;;;;;;;;4900912;29;20454;-61
2023/12/09 11:34:19;;;;;;;4.90;1.67;;;;;;;;;;4894308;29;20422;-69
2023/12/09 11:36:48;;;;;;;4.40;1.50;;;;;;;;;;4906066;29;20523;-64
2023/12/09 11:39:20;;;;;;;6.07;2.17;;;;;;;;;;4901545;29;20060;-63
2023/12/09 11:41:48;;;;;;;5.80;2.30;;;;;;;;;;4905496;29;20049;-62
2023/12/09 11:44:14;;;;;;;6.70;1.98;;;;;;;;;;4907975;29;20519;-63
2023/12/09 11:46:43;;;;;;;6.72;2.13;;;;;;;;;;4902554;29;20064;-63
2023/12/09 11:49:09;;;;;;;6.47;1.83;;;;;;;;;;4915361;29;20468;-64
2023/12/09 11:51:37;;;;;;;9.48;1.90;;;;;;;;;;4913400;29;20131;-61
2023/12/09 11:54:08;;;;;;;4.13;1.48;;;;;;;;;;4902559;29;20058;-62
2023/12/09 11:56:38;;;;;;;4.13;1.55;;;;;;;;;;4901228;29;20151;-63
2023/12/09 11:59:05;;;;;;;4.72;1.63;;;;;;;;;;4904794;29;20053;-65
2023/12/09 12:01:31;;;;;;;4.18;1.50;;;;;;;;;;4908105;29;20556;-63
2023/12/09 12:03:58;;;;;;;4.85;1.45;;;;;;;;;;4902895;29;20095;-63
2023/12/09 12:06:25;;;;;;;6.25;1.30;;;;;;;;;;4905901;29;20058;-64
2023/12/09 12:08:55;;;;;;;3.65;1.48;;;;;;;;;;4906508;29;20052;-60
2023/12/09 12:11:26;;;;;;;2.60;1.30;;;;;;;;;;4911273;29;20049;-65
2023/12/09 12:13:54;;;;;;;4.43;1.48;;;;;;;;;;4903365;29;20119;-64
2023/12/09 12:16:20;;;;;;;3.38;1.30;;;;;;;;;;4909424;29;20139;-64
2023/12/09 12:18:47;;;;;;;7.05;1.60;;;;;;;;;;4907887;29;20054;-65
2023/12/09 12:21:14;;;;;;;2.28;1.17;;;;;;;;;;4899068;29;20127;-63
2023/12/09 12:23:42;;;;;;;8.77;1.50;;;;;;;;;;4911357;29;20056;-62
2023/12/09 12:26:11;;;;;;;10.65;1.80;;;;;;;;;;4899942;29;20563;-62
2023/12/09 12:28:37;;;;;;;7.82;1.40;;;;;;;;;;4922655;29;20417;-62
2023/12/09 12:31:06;;;;;;;8.00;1.60;;;;;;;;;;4904410;29;20063;-63
2023/12/09 12:33:34;;;;;;;7.43;1.70;;;;;;;;;;4909469;29;20478;-60
2023/12/09 12:36:03;;;;;;;4.60;1.50;;;;;;;;;;4916826;29;20060;-64
2023/12/09 12:38:30;;;;;;;6.57;1.70;;;;;;;;;;4916185;29;20480;-69
2023/12/09 12:41:00;;;;;;;4.07;1.35;;;;;;;;;;4900124;29;20051;-64
2023/12/09 12:43:31;;;;;;;7.53;1.55;;;;;;;;;;4908442;29;20115;-62
2023/12/09 12:45:59;;;;;;;9.77;1.67;;;;;;;;;;4901969;29;20623;-63
2023/12/09 12:48:26;;;;;;;10.63;1.60;;;;;;;;;;4914451;29;20052;-63
2023/12/09 12:50:53;;;;;;;6.40;1.67;;;;;;;;;;4903924;29;20496;-63
2023/12/09 12:53:22;;;;;;;5.80;1.40;;;;;;;;;;4907816;29;20389;-62
2023/12/09 12:55:49;;;;;;;5.30;1.70;;;;;;;;;;4907185;29;20060;-61
2023/12/09 12:58:16;;;;;;;5.55;1.50;;;;;;;;;;4901999;29;20108;-62
2023/12/09 13:00:43;;;;;;;5.40;1.60;;;;;;;;;;4906963;29;20056;-63
2023/12/09 13:03:10;;;;;;;4.68;1.75;;;;;;;;;;4910296;29;20044;-64
2023/12/09 13:05:38;;;;;;;6.18;1.63;;;;;;;;;;4901655;29;20441;-63
2023/12/09 13:08:05;;;;;;;9.23;1.80;;;;;;;;;;4912056;29;20067;-61
2023/12/09 13:10:31;;;;;;;7.10;1.60;;;;;;;;;;4899225;29;20056;-62
2023/12/09 13:12:59;;;;;;;4.97;1.40;;;;;;;;;;4907717;29;20063;-65
2023/12/09 13:15:27;;;;;;;8.00;1.63;;;;;;;;;;4906798;29;20519;-63
2023/12/09 13:17:53;;;;;;;4.82;1.60;;;;;;;;;;4904436;29;20060;-62
2023/12/09 13:20:20;;;;;;;7.40;1.80;;;;;;;;;;4910900;29;20135;-63
2023/12/09 13:22:46;;;;;;;5.15;1.65;;;;;;;;;;4906862;29;20408;-64
2023/12/09 13:25:13;;;;;;;5.53;1.80;;;;;;;;;;4903078;29;20056;-62
2023/12/09 13:27:41;;;;;;;6.10;1.77;;;;;;;;;;4920265;29;20504;-62
2023/12/09 13:30:15;;;;;;;4.97;1.60;;;;;;;;;;4915610;29;20040;-65
2023/12/09 13:32:41;;;;;;;3.90;1.60;;;;;;;;;;4909583;29;20055;-62
2023/12/09 13:35:10;;;;;;;6.10;1.60;;;;;;;;;;4902990;29;20064;-62
2023/12/09 13:37:38;;;;;;;6.65;1.65;;;;;;;;;;4905303;29;20067;-64
2023/12/09 13:40:09;;;;;;;5.65;1.85;;;;;;;;;;4906454;29;20060;-62
2023/12/09 13:42:35;;;;;;;9.63;1.50;;;;;;;;;;4905086;29;20079;-64
2023/12/09 13:45:01;;;;;;;7.43;1.88;;;;;;;;;;4904315;29;20044;-63
2023/12/09 13:47:27;;;;;;;6.47;1.38;;;;;;;;;;4917643;29;20055;-63
2023/12/09 13:49:55;;;;;;;5.32;1.50;;;;;;;;;;4904678;29;20062;-70
2023/12/09 13:52:22;;;;;;;8.90;2.00;;;;;;;;;;4904857;29;20098;-65
2023/12/09 13:54:51;;;;;;;10.18;1.85;;;;;;;;;;4910127;29;20694;-70
2023/12/09 13:57:18;;;;;;;5.63;1.60;;;;;;;;;;4903118;29;20096;-65
2023/12/09 13:59:48;;;;;;;8.23;1.70;;;;;;;;;;4908518;29;20505;-65
2023/12/09 14:02:14;;;;;;;5.55;1.52;;;;;;;;;;4904929;29;20044;-65
2023/12/09 14:04:42;;;;;;;4.75;1.50;;;;;;;;;;4914725;29;20127;-66
2023/12/09 14:07:10;;;;;;;5.00;1.80;;;;;;;;;;4904267;29;20119;-65
2023/12/09 14:09:38;;;;;;;5.03;1.40;;;;;;;;;;4901774;29;20075;-64
2023/12/09 14:12:05;;;;;;;8.45;2.15;;;;;;;;;;4908520;29;20497;-66
2023/12/09 14:14:31;;;;;;;8.00;1.48;;;;;;;;;;4924555;29;20120;-66
2023/12/09 14:16:58;;;;;;;5.32;1.67;;;;;;;;;;4900906;29;20105;-65
2023/12/09 14:19:25;;;;;;;4.63;1.58;;;;;;;;;;4907349;29;20127;-68
2023/12/09 14:21:53;;;;;;;10.73;1.70;;;;;;;;;;4910625;29;20048;-63
2023/12/09 14:24:21;;;;;;;2.97;1.20;;;;;;;;;;4909080;29;20067;-65
2023/12/09 14:26:52;;;;;;;3.78;1.50;;;;;;;;;;4902961;29;20057;-64
2023/12/09 14:29:19;;;;;;;4.90;1.30;;;;;;;;;;4900468;29;20450;-64
2023/12/09 14:31:47;;;;;;;5.50;1.70;;;;;;;;;;4913773;29;20119;-62
2023/12/09 14:34:18;;;;;;;6.68;1.60;;;;;;;;;;4908817;29;20087;-63
2023/12/09 14:36:45;;;;;;;6.38;1.50;;;;;;;;;;4910857;29;20466;-64
2023/12/09 14:39:14;;;;;;;2.85;1.27;;;;;;;;;;4909418;29;20172;-68
2023/12/09 14:41:40;;;;;;;5.43;1.40;;;;;;;;;;4904680;29;20476;-64
2023/12/09 14:44:06;;;;;;;5.22;1.40;;;;;;;;;;4905253;29;20071;-63
2023/12/09 14:46:33;;;;;;;3.58;1.38;;;;;;;;;;4902971;29;20083;-63
2023/12/09 14:48:59;;;;;;;5.63;1.38;;;;;;;;;;4915785;29;20465;-64
2023/12/09 14:51:25;;;;;;;9.32;1.50;;;;;;;;;;4905157;29;20062;-63
2023/12/09 14:53:52;;;;;;;3.78;1.48;;;;;;;;;;4900992;29;20079;-63
2023/12/09 14:56:20;;;;;;;3.67;1.45;;;;;;;;;;4908845;29;20090;-64
2023/12/09 14:58:50;;;;;;;4.25;1.13;;;;;;;;;;4903092;29;20044;-62
2023/12/09 15:01:18;;;;;;;4.30;1.38;;;;;;;;;;4913556;29;20048;-65
2023/12/09 15:03:44;;;;;;;3.90;1.42;;;;;;;;;;4924536;29;20060;-65
2023/12/09 15:06:10;;;;;;;4.20;1.10;;;;;;;;;;4900046;29;20426;-65
2023/12/09 15:08:38;;;;;;;4.47;1.35;;;;;;;;;;4903608;29;20148;-64
2023/12/09 15:11:04;;;;;;;6.07;1.50;;;;;;;;;;4901959;29;20055;-64
2023/12/09 15:13:32;;;;;;;2.17;1.00;;;;;;;;;;4903492;29;20366;-63
2023/12/09 15:16:03;;;;;;;4.15;1.38;;;;;;;;;;4900660;29;20052;-63
2023/12/09 15:18:30;;;;;;;6.00;1.05;;;;;;;;;;4908831;29;20053;-65
2023/12/09 15:20:56;;;;;;;5.30;1.25;;;;;;;;;;4886465;29;20478;-64
2023/12/09 15:23:25;;;;;;;3.17;1.17;;;;;;;;;;4909478;29;20096;-66
2023/12/09 15:25:51;;;;;;;4.00;1.50;;;;;;;;;;4927084;29;20152;-63
2023/12/09 15:28:20;;;;;;;5.13;1.42;;;;;;;;;;4899634;29;20234;-66
2023/12/09 15:30:47;;;;;;;3.72;1.27;;;;;;;;;;4896735;29;20432;-63
2023/12/09 15:33:18;;;;;;;4.18;1.25;;;;;;;;;;4895773;29;20170;-63
2023/12/09 15:35:47;;;;;;;3.30;1.20;;;;;;;;;;4908576;29;20099;-61
2023/12/09 15:38:16;;;;;;;3.47;1.10;;;;;;;;;;4904157;29;20067;-64
2023/12/09 15:40:44;;;;;;;2.33;1.00;;;;;;;;;;4899497;29;20049;-61
2023/12/09 15:43:12;;;;;;;3.80;1.38;;;;;;;;;;4911333;29;20473;-66
2023/12/09 15:45:38;;;;;;;4.57;1.60;;;;;;;;;;4904294;29;20056;-64
2023/12/09 15:48:11;;;;;;;3.75;1.23;;;;;;;;;;4908352;29;20095;-65
2023/12/09 15:50:38;;;;;;;3.78;1.08;;;;;;;;;;4907964;29;20422;-64
2023/12/09 15:53:08;;;;;;;2.30;1.00;;;;;;;;;;4915424;29;20071;-65
2023/12/09 15:55:36;;;;;;;4.10;1.20;;;;;;;;;;4901103;29;20059;-62
2023/12/09 15:58:02;;;;;;;3.60;1.08;;;;;;;;;;4897604;29;20579;-67
2023/12/09 16:00:30;;;;;;;2.25;1.00;;;;;;;;;;4910406;29;20056;-62
2023/12/09 16:02:59;;;;;;;4.57;1.08;;;;;;;;;;4899963;29;20170;-64
2023/12/09 16:05:29;;;;;;;2.42;1.00;;;;;;;;;;4907247;29;20063;-62
2023/12/09 16:07:57;;;;;;;2.80;1.15;;;;;;;;;;4911127;29;20048;-65
2023/12/09 16:10:32;;;;;;;1.85;0.82;;;;;;;;;;4914012;29;20052;-63
2023/12/09 16:13:02;;;;;;;1.00;0.90;;;;;;;;;;4912871;29;20044;-63
2023/12/09 16:15:30;;;;;;;4.38;1.05;;;;;;;;;;4908552;29;20528;-62
2023/12/09 16:18:00;;;;;;;2.30;1.10;;;;;;;;;;4909893;29;20063;-62
2023/12/09 16:20:27;;;;;;;4.80;1.40;;;;;;;;;;4905210;29;20159;-64
2023/12/09 16:22:55;;;;;;;2.47;1.30;;;;;;;;;;4907918;29;20514;-64
2023/12/09 16:25:22;;;;;;;2.65;1.30;;;;;;;;;;4902794;29;20059;-63
2023/12/09 16:27:50;;;;;;;3.15;1.27;;;;;;;;;;4910251;29;20059;-62
2023/12/09 16:30:17;;;;;;;2.25;1.20;;;;;;;;;;4903406;29;20057;-66
2023/12/09 16:32:49;;;;;;;1.83;0.98;;;;;;;;;;4903257;29;20056;-62
2023/12/09 16:35:17;;;;;;;2.67;1.20;;;;;;;;;;4902295;29;20252;-62
2023/12/09 16:37:45;;;;;;;2.13;1.02;;;;;;;;;;4907563;29;20467;-62
2023/12/09 16:40:12;;;;;;;1.50;0.90;;;;;;;;;;4902415;29;20267;-65
2023/12/09 16:42:44;;;;;;;1.30;1.00;;;;;;;;;;4917721;29;20052;-67
2023/12/09 16:45:11;;;;;;;4.78;2.00;;;;;;;;;;4911381;29;20069;-65
2023/12/09 16:47:41;;;;;;;2.95;1.40;;;;;;;;;;4914423;29;20662;-64
2023/12/09 16:50:09;;;;;;;2.20;1.10;;;;;;;;;;4899284;29;20505;-63
2023/12/09 16:52:36;;;;;;;2.03;1.00;;;;;;;;;;4898769;29;20056;-66
2023/12/09 16:55:03;;;;;;;3.55;1.00;;;;;;;;;;4896451;29;20053;-63
2023/12/09 16:57:31;;;;;;;2.97;1.17;;;;;;;;;;4912638;29;20139;-62
2023/12/09 17:00:00;;;;;;;2.65;1.67;;;;;;;;;;4915577;29;20390;-63
2023/12/09 17:02:29;;;;;;;3.28;1.40;;;;;;;;;;4899178;29;20052;-64
2023/12/09 17:05:09;;;;;;;2.90;1.33;;;;;;;;;;4902789;29;20052;-63
2023/12/09 17:07:41;;;;;;;1.80;1.25;;;;;;;;;;4915114;29;20059;-69
2023/12/09 17:10:09;;;;;;;1.42;1.02;;;;;;;;;;4904603;29;20056;-64
2023/12/09 17:12:39;;;;;;;3.75;1.48;;;;;;;;;;4903933;29;20131;-64
2023/12/09 17:15:07;;;;;;;1.88;1.15;;;;;;;;;;4907228;29;20405;-62
2023/12/09 17:17:35;;;;;;;2.20;1.02;;;;;;;;;;4915409;29;20111;-63
2023/12/09 17:20:13;;;;;;;1.90;1.02;;;;;;;;;;4917362;29;20453;-65
2023/12/09 17:22:40;;;;;;;3.45;1.27;;;;;;;;;;4909383;29;20147;-64
2023/12/09 17:25:06;;;;;;;2.05;1.10;;;;;;;;;;4904407;29;20067;-63
2023/12/09 17:27:33;;;;;;;3.55;1.35;;;;;;;;;;4911181;29;20064;-65
2023/12/09 17:29:59;;;;;;;3.63;1.10;;;;;;;;;;4904890;29;20048;-62